createdAt,value
2023-09-23T00:00:36.986Z,19.35
2023-09-23T00:03:29.155Z,19.25
2023-09-23T00:06:01.776Z,19.17
2023-09-23T00:08:38.748Z,19.11
2023-09-23T00:11:11.971Z,19.11
2023-09-23T00:13:44.595Z,19.14
2023-09-23T00:16:17.525Z,19.10
2023-09-23T00:18:50.010Z,19.06
2023-09-23T00:21:22.923Z,19.10
2023-09-23T00:23:56.628Z,19.03
2023-09-23T00:26:29.727Z,18.95
2023-09-23T00:29:02.188Z,18.87
2023-09-23T00:31:38.419Z,18.81
2023-09-23T00:34:10.617Z,18.85
2023-09-23T00:36:42.907Z,18.95
2023-09-23T00:39:18.992Z,19.02
2023-09-23T00:41:51.652Z,18.99
2023-09-23T00:44:23.937Z,18.97
2023-09-23T00:46:57.671Z,18.97
2023-09-23T00:49:31.542Z,18.97
2023-09-23T00:52:07.276Z,18.99
2023-09-23T00:54:42.129Z,19.01
2023-09-23T00:57:18.588Z,19.01
2023-09-23T00:59:51.123Z,18.97
2023-09-23T01:02:25.014Z,18.93
2023-09-23T01:04:57.352Z,18.96
2023-09-23T01:07:32.781Z,19.01
2023-09-23T01:10:05.912Z,19.05
2023-09-23T01:12:40.724Z,19.09
2023-09-23T01:15:14.230Z,19.10
2023-09-23T01:17:51.186Z,19.11
2023-09-23T01:20:24.710Z,19.09
2023-09-23T01:23:00.494Z,19.09
2023-09-23T01:25:39.650Z,19.10
2023-09-23T01:28:16.095Z,19.07
2023-09-23T01:30:48.690Z,19.03
2023-09-23T01:33:21.062Z,19.00
2023-09-23T01:35:56.941Z,18.96
2023-09-23T01:38:29.221Z,18.96
2023-09-23T01:41:03.376Z,18.97
2023-09-23T01:43:37.008Z,18.99
2023-09-23T01:46:09.925Z,19.04
2023-09-23T01:48:42.178Z,19.04
2023-09-23T01:51:17.938Z,18.99
2023-09-23T01:53:50.153Z,18.90
2023-09-23T01:56:22.465Z,18.86
2023-09-23T01:58:54.453Z,18.84
2023-09-23T02:01:27.804Z,18.79
2023-09-23T02:04:01.048Z,18.79
2023-09-23T02:06:39.003Z,18.82
2023-09-23T02:09:11.508Z,18.84
2023-09-23T02:11:44.138Z,18.76
2023-09-23T02:14:17.042Z,18.66
2023-09-23T02:16:49.610Z,18.54
2023-09-23T02:19:23.447Z,18.46
2023-09-23T02:21:56.176Z,18.44
2023-09-23T02:24:28.859Z,18.52
2023-09-23T02:27:01.319Z,18.62
2023-09-23T02:29:34.497Z,18.68
2023-09-23T02:32:08.183Z,18.72
2023-09-23T02:34:41.353Z,18.78
2023-09-23T02:37:14.283Z,18.82
2023-09-23T02:39:46.920Z,18.80
2023-09-23T02:42:19.626Z,18.76
2023-09-23T02:44:51.708Z,18.72
2023-09-23T02:47:24.153Z,18.68
2023-09-23T02:49:56.835Z,18.65
2023-09-23T02:52:30.549Z,18.61
2023-09-23T02:55:02.879Z,18.59
2023-09-23T02:57:39.266Z,18.57
2023-09-23T03:00:19.888Z,18.57
2023-09-23T03:02:57.105Z,18.59
2023-09-23T03:05:33.024Z,18.61
2023-09-23T03:08:15.317Z,18.65
2023-09-23T03:10:48.407Z,18.69
2023-09-23T03:13:25.077Z,18.68
2023-09-23T03:16:07.728Z,18.64
2023-09-23T03:18:56.318Z,18.62
2023-09-23T03:21:29.979Z,18.63
2023-09-23T03:24:03.433Z,18.64
2023-09-23T03:26:35.631Z,18.64
2023-09-23T03:29:09.777Z,18.62
2023-09-23T03:31:42.260Z,18.60
2023-09-23T03:34:15.738Z,18.57
2023-09-23T03:36:48.243Z,18.49
2023-09-23T03:39:20.634Z,18.46
2023-09-23T03:41:53.597Z,18.47
2023-09-23T03:44:25.985Z,18.42
2023-09-23T03:47:08.808Z,18.26
2023-09-23T03:49:45.102Z,18.10
2023-09-23T03:52:17.485Z,18.07
2023-09-23T03:54:50.390Z,18.12
2023-09-23T03:57:22.708Z,18.17
2023-09-23T03:59:55.077Z,18.15
2023-09-23T04:02:27.419Z,18.02
2023-09-23T04:04:59.982Z,18.03
2023-09-23T04:07:32.419Z,18.09
2023-09-23T04:10:04.849Z,18.09
2023-09-23T04:12:39.015Z,18.03
2023-09-23T04:15:12.556Z,17.99
2023-09-23T04:17:45.533Z,17.99
2023-09-23T04:20:19.477Z,17.98
2023-09-23T04:22:52.098Z,17.97
2023-09-23T04:25:24.619Z,17.97
2023-09-23T04:27:57.222Z,17.96
2023-09-23T04:30:29.614Z,17.95
2023-09-23T04:33:02.672Z,17.95
2023-09-23T04:35:37.082Z,17.97
2023-09-23T04:38:11.484Z,17.97
2023-09-23T04:40:46.843Z,17.95
2023-09-23T04:43:22.863Z,17.99
2023-09-23T04:45:55.348Z,18.03
2023-09-23T04:48:28.185Z,18.02
2023-09-23T04:51:00.771Z,17.98
2023-09-23T04:53:34.708Z,17.95
2023-09-23T04:56:10.386Z,17.90
2023-09-23T04:58:43.569Z,17.87
2023-09-23T05:01:20.295Z,17.82
2023-09-23T05:03:53.793Z,17.78
2023-09-23T05:06:26.516Z,17.75
2023-09-23T05:09:00.414Z,17.68
2023-09-23T05:11:36.520Z,17.56
2023-09-23T05:14:11.750Z,17.46
2023-09-23T05:16:44.959Z,17.37
2023-09-23T05:19:20.648Z,17.34
2023-09-23T05:21:52.908Z,17.28
2023-09-23T05:24:28.229Z,17.22
2023-09-23T05:27:01.400Z,17.14
2023-09-23T05:29:33.924Z,17.12
2023-09-23T05:32:06.243Z,17.10
2023-09-23T05:34:41.171Z,17.05
2023-09-23T05:37:14.019Z,17.04
2023-09-23T05:39:47.556Z,17.06
2023-09-23T05:42:25.315Z,17.05
2023-09-23T05:44:57.849Z,17.05
2023-09-23T05:47:29.853Z,17.06
2023-09-23T05:50:03.241Z,17.01
2023-09-23T05:52:37.771Z,16.97
2023-09-23T05:55:12.392Z,16.97
2023-09-23T05:57:45.260Z,16.96
2023-09-23T06:00:19.187Z,16.97
2023-09-23T06:02:54.453Z,16.98
2023-09-23T06:05:28.543Z,16.99
2023-09-23T06:08:05.277Z,16.99
2023-09-23T06:10:38.277Z,17.01
2023-09-23T06:13:14.747Z,17.03
2023-09-23T06:15:47.364Z,17.05
2023-09-23T06:18:19.978Z,17.05
2023-09-23T06:21:01.815Z,17.06
2023-09-23T06:23:35.398Z,17.09
2023-09-23T06:26:07.809Z,17.15
2023-09-23T06:28:42.570Z,17.18
2023-09-23T06:31:15.177Z,17.24
2023-09-23T06:33:47.606Z,17.28
2023-09-23T06:36:21.653Z,17.36
2023-09-23T06:38:53.919Z,17.40
2023-09-23T06:41:26.092Z,17.45
2023-09-23T06:43:58.260Z,17.51
2023-09-23T06:46:30.637Z,17.51
2023-09-23T06:49:04.315Z,17.56
2023-09-23T06:51:36.767Z,17.58
2023-09-23T06:54:09.032Z,17.57
2023-09-23T06:56:42.178Z,17.54
2023-09-23T06:59:14.447Z,17.49
2023-09-23T07:01:47.058Z,17.45
2023-09-23T07:04:19.346Z,17.41
2023-09-23T07:06:52.151Z,17.37
2023-09-23T07:09:24.126Z,17.34
2023-09-23T07:11:56.472Z,17.33
2023-09-23T07:14:28.722Z,17.30
2023-09-23T07:17:01.706Z,17.30
2023-09-23T07:19:33.916Z,17.29
2023-09-23T07:22:07.134Z,17.27
2023-09-23T07:24:40.704Z,17.27
2023-09-23T07:27:15.859Z,17.30
2023-09-23T07:29:47.828Z,17.30
2023-09-23T07:32:20.064Z,17.23
2023-09-23T07:34:52.251Z,17.19
2023-09-23T07:37:24.547Z,17.17
2023-09-23T07:39:56.701Z,17.20
2023-09-23T07:42:29.199Z,17.22
2023-09-23T07:45:01.285Z,17.23
2023-09-23T07:47:34.196Z,17.24
2023-09-23T07:50:07.220Z,17.28
2023-09-23T07:52:42.256Z,17.30
2023-09-23T07:55:15.333Z,17.34
2023-09-23T07:57:47.755Z,17.39
2023-09-23T08:00:20.478Z,17.42
2023-09-23T08:02:53.369Z,17.46
2023-09-23T08:05:25.826Z,17.52
2023-09-23T08:07:58.246Z,17.57
2023-09-23T08:10:30.653Z,17.61
2023-09-23T08:13:05.274Z,17.59
2023-09-23T08:15:37.527Z,17.56
2023-09-23T08:18:14.702Z,17.54
2023-09-23T08:20:47.222Z,17.56
2023-09-23T08:23:20.199Z,17.55
2023-09-23T08:25:52.529Z,17.57
2023-09-23T08:28:25.486Z,17.59
2023-09-23T08:30:57.872Z,17.57
2023-09-23T08:33:30.202Z,17.59
2023-09-23T08:36:02.601Z,17.67
2023-09-23T08:38:35.798Z,17.73
2023-09-23T08:41:08.513Z,17.76
2023-09-23T08:43:45.337Z,17.78
2023-09-23T08:46:21.020Z,17.79
2023-09-23T08:48:56.248Z,17.82
2023-09-23T08:51:29.000Z,17.86
2023-09-23T08:54:01.919Z,17.92
2023-09-23T08:56:35.540Z,17.99
2023-09-23T08:59:10.598Z,18.12
2023-09-23T09:01:49.012Z,18.25
2023-09-23T09:04:21.070Z,18.38
2023-09-23T09:06:55.115Z,18.48
2023-09-23T09:09:27.859Z,18.55
2023-09-23T09:12:01.020Z,18.52
2023-09-23T09:14:34.657Z,18.49
2023-09-23T09:17:21.149Z,18.48
2023-09-23T09:19:53.563Z,18.52
2023-09-23T09:22:25.806Z,18.58
2023-09-23T09:24:58.137Z,18.65
2023-09-23T09:27:30.282Z,18.65
2023-09-23T09:32:38.385Z,18.61
2023-09-23T09:35:16.340Z,18.62
2023-09-23T09:37:48.201Z,18.59
2023-09-23T09:40:22.620Z,18.50
2023-09-23T09:42:56.673Z,18.45
2023-09-23T09:45:35.682Z,18.46
2023-09-23T09:48:12.661Z,18.47
2023-09-23T09:50:47.375Z,18.45
2023-09-23T09:53:22.800Z,18.48
2023-09-23T09:55:57.655Z,18.48
2023-09-23T09:58:39.662Z,18.49
2023-09-23T10:01:14.872Z,18.50
2023-09-23T10:03:51.983Z,18.51
2023-09-23T10:06:25.309Z,18.50
2023-09-23T10:09:00.800Z,18.46
2023-09-23T10:11:38.034Z,18.46
2023-09-23T10:14:18.377Z,18.46
2023-09-23T10:16:54.338Z,18.47
2023-09-23T10:19:39.794Z,18.45
2023-09-23T10:22:19.484Z,18.44
2023-09-23T10:25:06.074Z,18.47
2023-09-23T10:27:57.769Z,18.43
2023-09-23T10:30:30.590Z,18.38
2023-09-23T10:33:03.331Z,18.41
2023-09-23T10:35:37.603Z,18.47
2023-09-23T10:38:22.050Z,18.52
2023-09-23T10:40:55.702Z,18.59
2023-09-23T10:43:29.002Z,18.61
2023-09-23T10:46:03.521Z,18.62
2023-09-23T10:48:37.288Z,18.66
2023-09-23T10:51:10.235Z,18.74
2023-09-23T10:53:43.828Z,18.80
2023-09-23T10:56:15.892Z,18.84
2023-09-23T10:58:50.629Z,18.86
2023-09-23T11:01:23.440Z,18.90
2023-09-23T11:03:56.370Z,18.94
2023-09-23T11:06:28.874Z,19.01
2023-09-23T11:09:04.933Z,19.04
2023-09-23T11:11:38.905Z,19.09
2023-09-23T11:14:16.453Z,19.06
2023-09-23T11:16:49.860Z,19.00
2023-09-23T11:19:23.164Z,18.98
2023-09-23T11:21:55.613Z,19.05
2023-09-23T11:24:27.929Z,19.10
2023-09-23T11:27:00.097Z,19.08
2023-09-23T11:29:32.432Z,19.08
2023-09-23T11:32:04.757Z,19.05
2023-09-23T11:34:37.889Z,19.00
2023-09-23T11:37:11.604Z,18.98
2023-09-23T11:39:46.453Z,19.00
2023-09-23T11:42:20.652Z,19.00
2023-09-23T11:44:52.839Z,18.98
2023-09-23T11:47:25.773Z,18.94
2023-09-23T11:49:57.844Z,18.90
2023-09-23T11:52:32.380Z,18.84
2023-09-23T11:55:06.175Z,18.76
2023-09-23T11:57:38.656Z,18.67
2023-09-23T12:00:16.503Z,18.62
2023-09-23T12:02:50.058Z,18.63
2023-09-23T12:05:28.431Z,18.66
2023-09-23T12:08:01.854Z,18.64
2023-09-23T12:10:35.065Z,18.65
2023-09-23T12:13:08.559Z,18.70
2023-09-23T12:15:41.802Z,18.74
2023-09-23T12:18:17.756Z,18.76
2023-09-23T12:20:52.162Z,18.77
2023-09-23T12:23:27.218Z,18.76
2023-09-23T12:26:00.017Z,18.76
2023-09-23T12:28:33.302Z,18.79
2023-09-23T12:31:05.643Z,18.77
2023-09-23T12:33:38.203Z,18.77
2023-09-23T12:36:11.108Z,18.78
2023-09-23T12:38:44.238Z,18.74
2023-09-23T12:41:17.332Z,18.67
2023-09-23T12:43:49.536Z,18.64
2023-09-23T12:46:21.951Z,18.61
2023-09-23T12:48:54.230Z,18.57
2023-09-23T12:51:26.608Z,18.48
2023-09-23T12:53:59.203Z,18.42
2023-09-23T12:56:31.386Z,18.41
2023-09-23T12:59:03.791Z,18.45
2023-09-23T13:01:37.038Z,18.45
2023-09-23T13:04:09.456Z,18.45
2023-09-23T13:06:41.679Z,18.45
2023-09-23T13:09:14.000Z,18.46
2023-09-23T13:11:46.215Z,18.46
2023-09-23T13:14:18.881Z,18.44
2023-09-23T13:16:52.500Z,18.39
2023-09-23T13:19:25.019Z,18.31
2023-09-23T13:21:57.144Z,18.25
2023-09-23T13:24:32.668Z,18.23
2023-09-23T13:27:05.448Z,18.23
2023-09-23T13:29:41.545Z,18.19
2023-09-23T13:32:17.778Z,18.13
2023-09-23T13:34:50.172Z,18.10
2023-09-23T13:37:22.514Z,18.05
2023-09-23T13:39:59.176Z,18.01
2023-09-23T13:42:31.553Z,17.97
2023-09-23T13:45:03.800Z,17.98
2023-09-23T13:47:38.644Z,17.99
2023-09-23T13:50:11.657Z,17.98
2023-09-23T13:52:45.082Z,17.94
2023-09-23T13:55:17.160Z,17.93
2023-09-23T13:57:49.378Z,17.97
2023-09-23T14:00:21.668Z,18.05
2023-09-23T14:02:53.716Z,18.03
2023-09-23T14:05:26.100Z,17.96
2023-09-23T14:07:58.440Z,17.88
2023-09-23T14:10:30.676Z,17.89
2023-09-23T14:13:06.159Z,17.88
2023-09-23T14:15:38.798Z,17.90
2023-09-23T14:18:14.152Z,17.92
2023-09-23T14:20:47.170Z,18.01
2023-09-23T14:23:21.745Z,18.09
2023-09-23T14:25:54.004Z,18.17
2023-09-23T14:28:28.346Z,18.23
2023-09-23T14:31:00.462Z,18.32
2023-09-23T14:33:32.740Z,18.37
2023-09-23T14:36:06.412Z,18.38
2023-09-23T14:38:39.275Z,18.33
2023-09-23T14:41:14.375Z,18.25
2023-09-23T14:43:49.433Z,18.20
2023-09-23T14:46:21.954Z,18.14
2023-09-23T14:48:54.294Z,18.07
2023-09-23T14:51:26.505Z,18.01
2023-09-23T14:54:01.977Z,17.96
2023-09-23T14:56:34.535Z,17.92
2023-09-23T14:59:06.851Z,17.87
2023-09-23T15:01:39.974Z,17.82
2023-09-23T15:04:12.886Z,17.77
2023-09-23T15:06:47.398Z,17.72
2023-09-23T15:09:19.649Z,17.66
2023-09-23T15:11:51.770Z,17.62
2023-09-23T15:14:26.658Z,17.59
2023-09-23T15:16:59.193Z,17.58
2023-09-23T15:19:31.628Z,17.61
2023-09-23T15:22:03.973Z,17.67
2023-09-23T15:24:37.380Z,17.68
2023-09-23T15:27:12.619Z,17.77
2023-09-23T15:29:49.046Z,17.86
2023-09-23T15:32:21.664Z,17.91
2023-09-23T15:34:54.716Z,17.91
2023-09-23T15:37:26.944Z,17.88
2023-09-23T15:40:05.434Z,17.92
2023-09-23T15:42:44.376Z,17.91
2023-09-23T15:45:16.769Z,17.87
2023-09-23T15:47:49.481Z,17.83
2023-09-23T15:50:21.711Z,17.78
2023-09-23T15:52:57.473Z,17.76
2023-09-23T15:55:30.154Z,17.70
2023-09-23T15:58:02.625Z,17.66
2023-09-23T16:00:36.135Z,17.67
2023-09-23T16:03:13.963Z,17.58
2023-09-23T16:05:49.474Z,17.49
2023-09-23T16:08:25.359Z,17.47
2023-09-23T16:10:57.382Z,17.47
2023-09-23T16:13:32.506Z,17.40
2023-09-23T16:16:05.279Z,17.30
2023-09-23T16:18:38.106Z,17.24
2023-09-23T16:21:13.016Z,17.25
2023-09-23T16:23:47.434Z,17.25
2023-09-23T16:26:21.210Z,17.19
2023-09-23T16:28:53.513Z,17.11
2023-09-23T16:31:28.902Z,17.10
2023-09-23T16:34:03.448Z,17.11
2023-09-23T16:36:35.997Z,17.06
2023-09-23T16:39:10.988Z,16.99
2023-09-23T16:41:44.890Z,16.93
2023-09-23T16:44:17.108Z,16.86
2023-09-23T16:46:51.399Z,16.83
2023-09-23T16:49:26.116Z,16.82
2023-09-23T16:52:00.063Z,16.78
2023-09-23T16:54:35.204Z,16.73
2023-09-23T16:57:08.839Z,16.71
2023-09-23T16:59:45.037Z,16.76
2023-09-23T17:02:19.056Z,16.84
2023-09-23T17:04:51.538Z,16.88
2023-09-23T17:07:24.241Z,16.85
2023-09-23T17:09:56.973Z,16.78
2023-09-23T17:12:29.147Z,16.76
2023-09-23T17:15:02.679Z,16.70
2023-09-23T17:17:36.391Z,16.68
2023-09-23T17:20:10.915Z,16.62
2023-09-23T17:22:43.073Z,16.55
2023-09-23T17:25:16.191Z,16.52
2023-09-23T17:27:50.884Z,16.47
2023-09-23T17:30:23.878Z,16.43
2023-09-23T17:33:04.529Z,16.47
2023-09-23T17:35:43.510Z,16.46
2023-09-23T17:38:19.074Z,16.41
2023-09-23T17:40:53.951Z,16.43
2023-09-23T17:43:30.691Z,16.45
2023-09-23T17:46:05.719Z,16.40
2023-09-23T17:48:37.964Z,16.34
2023-09-23T17:51:10.367Z,16.36
2023-09-23T17:53:42.517Z,16.37
2023-09-23T17:56:17.677Z,16.37
2023-09-23T17:58:50.405Z,16.39
2023-09-23T18:01:22.880Z,16.38
2023-09-23T18:03:55.695Z,16.40
2023-09-23T18:06:31.204Z,16.33
2023-09-23T18:09:03.770Z,16.24
2023-09-23T18:11:37.363Z,16.18
2023-09-23T18:14:09.828Z,16.15
2023-09-23T18:16:42.029Z,16.16
2023-09-23T18:19:17.231Z,16.25
2023-09-23T18:21:51.105Z,16.36
2023-09-23T18:24:23.414Z,16.43
2023-09-23T18:26:55.827Z,16.48
2023-09-23T18:29:28.449Z,16.51
2023-09-23T18:32:00.702Z,16.50
2023-09-23T18:34:35.685Z,16.43
2023-09-23T18:37:09.108Z,16.39
2023-09-23T18:39:44.428Z,16.35
2023-09-23T18:42:16.753Z,16.35
2023-09-23T18:44:50.121Z,16.36
2023-09-23T18:47:23.003Z,16.38
2023-09-23T18:49:57.228Z,16.43
2023-09-23T18:52:30.579Z,16.44
2023-09-23T18:55:02.964Z,16.47
2023-09-23T18:57:37.805Z,16.49
2023-09-23T19:00:14.266Z,16.46
2023-09-23T19:02:46.685Z,16.42
2023-09-23T19:05:21.818Z,16.44
2023-09-23T19:07:56.566Z,16.44
2023-09-23T19:10:35.749Z,16.41
2023-09-23T19:13:08.345Z,16.35
2023-09-23T19:15:40.484Z,16.30
2023-09-23T19:18:17.098Z,16.24
2023-09-23T19:20:51.099Z,16.20
2023-09-23T19:23:33.374Z,16.20
2023-09-23T19:26:05.844Z,16.21
2023-09-23T19:28:40.099Z,16.17
2023-09-23T19:31:12.392Z,16.15
2023-09-23T19:33:45.672Z,16.15
2023-09-23T19:36:20.167Z,16.15
2023-09-23T19:38:52.490Z,16.15
2023-09-23T19:41:27.431Z,16.14
2023-09-23T19:43:59.564Z,16.13
2023-09-23T19:46:34.756Z,16.09
2023-09-23T19:49:06.986Z,16.07
2023-09-23T19:51:39.467Z,16.06
2023-09-23T19:54:12.236Z,16.04
2023-09-23T19:56:46.493Z,16.04
2023-09-23T19:59:21.080Z,16.02
2023-09-23T20:01:53.986Z,15.99
2023-09-23T20:04:25.899Z,15.97
2023-09-23T20:07:00.051Z,15.93
2023-09-23T20:09:33.820Z,15.90
2023-09-23T20:12:07.826Z,15.89
2023-09-23T20:14:44.170Z,15.89
2023-09-23T20:17:19.605Z,15.89
2023-09-23T20:19:52.346Z,15.89
2023-09-23T20:22:31.136Z,15.87
2023-09-23T20:25:03.522Z,15.78
2023-09-23T20:27:35.803Z,15.72
2023-09-23T20:30:10.334Z,15.64
2023-09-23T20:32:44.478Z,15.57
2023-09-23T20:35:17.046Z,15.56
2023-09-23T20:37:52.750Z,15.51
2023-09-23T20:40:27.074Z,15.48
2023-09-23T20:43:02.313Z,15.47
2023-09-23T20:45:35.193Z,15.46
2023-09-23T20:48:12.109Z,15.44
2023-09-23T20:50:45.224Z,15.46
2023-09-23T20:53:17.911Z,15.47
2023-09-23T20:55:50.647Z,15.40
2023-09-23T20:58:23.558Z,15.32
2023-09-23T21:00:55.692Z,15.28
2023-09-23T21:03:32.698Z,15.20
2023-09-23T21:06:08.127Z,15.11
2023-09-23T21:08:40.864Z,15.03
2023-09-23T21:11:14.023Z,14.96
2023-09-23T21:13:48.023Z,14.91
2023-09-23T21:16:22.375Z,14.87
2023-09-23T21:18:58.975Z,14.79
2023-09-23T21:21:35.801Z,14.73
2023-09-23T21:24:11.442Z,14.66
2023-09-23T21:26:43.740Z,14.57
2023-09-23T21:29:17.119Z,14.50
2023-09-23T21:31:49.619Z,14.53
2023-09-23T21:34:21.976Z,14.53
2023-09-23T21:36:54.184Z,14.54
2023-09-23T21:39:28.360Z,14.46
2023-09-23T21:42:03.069Z,14.40
2023-09-23T21:44:44.937Z,14.30
2023-09-23T21:47:18.109Z,14.21
2023-09-23T21:49:50.995Z,14.11
2023-09-23T21:52:23.157Z,14.02
2023-09-23T21:54:55.617Z,13.94
2023-09-23T21:57:27.754Z,13.91
2023-09-23T22:00:00.554Z,13.84
2023-09-23T22:02:32.977Z,13.78
2023-09-23T22:05:05.949Z,13.74
2023-09-23T22:07:39.412Z,13.77
2023-09-23T22:10:13.299Z,13.78
2023-09-23T22:12:46.169Z,13.77
2023-09-23T22:15:18.607Z,13.72
2023-09-23T22:17:50.997Z,13.69
2023-09-23T22:20:28.537Z,13.57
2023-09-23T22:23:03.264Z,13.51
2023-09-23T22:25:41.192Z,13.50
2023-09-23T22:28:13.883Z,13.43
2023-09-23T22:30:46.827Z,13.34
2023-09-23T22:33:19.303Z,13.27
2023-09-23T22:35:51.889Z,13.24
2023-09-23T22:38:24.067Z,13.23
2023-09-23T22:40:56.925Z,13.15
2023-09-23T22:43:30.606Z,13.09
2023-09-23T22:46:06.978Z,13.04
2023-09-23T22:48:39.347Z,13.01
2023-09-23T22:51:11.552Z,12.99
2023-09-23T22:53:47.175Z,12.96
2023-09-23T22:56:19.804Z,12.93
2023-09-23T22:58:54.289Z,12.86
2023-09-23T23:01:26.614Z,12.80
2023-09-23T23:03:59.127Z,12.74
2023-09-23T23:06:34.968Z,12.71
2023-09-23T23:09:09.100Z,12.66
2023-09-23T23:11:41.379Z,12.62
2023-09-23T23:14:15.811Z,12.60
2023-09-23T23:16:50.736Z,12.62
2023-09-23T23:19:25.228Z,12.57
2023-09-23T23:21:57.317Z,12.52
2023-09-23T23:24:29.551Z,12.47
2023-09-23T23:27:01.636Z,12.47
2023-09-23T23:29:34.261Z,12.52
2023-09-23T23:32:06.621Z,12.51
2023-09-23T23:34:38.731Z,12.46
2023-09-23T23:37:16.146Z,12.39
2023-09-23T23:39:52.105Z,12.29
2023-09-23T23:42:24.304Z,12.24
2023-09-23T23:44:57.869Z,12.18
2023-09-23T23:47:30.470Z,12.10
2023-09-23T23:50:03.712Z,12.03
2023-09-23T23:52:37.768Z,11.97
2023-09-23T23:55:14.114Z,11.93
2023-09-23T23:57:50.107Z,11.89
